createdAt,value
2019-03-23T00:00:42.221Z,52.80
2019-03-23T00:03:11.746Z,58.27
2019-03-23T00:05:41.255Z,44.70
2019-03-23T00:08:10.629Z,54.43
2019-03-23T00:10:40.102Z,48.83
2019-03-23T00:13:09.546Z,49.20
2019-03-23T00:15:39.113Z,53.17
2019-03-23T00:18:08.504Z,51.03
2019-03-23T00:20:37.924Z,51.73
2019-03-23T00:23:07.428Z,54.17
2019-03-23T00:25:36.815Z,51.03
2019-03-23T00:28:06.270Z,51.47
2019-03-23T00:30:35.677Z,52.93
2019-03-23T00:33:05.301Z,52.77
2019-03-23T00:35:34.703Z,52.60
2019-03-23T00:38:18.395Z,53.13
2019-03-23T00:40:52.522Z,51.07
2019-03-23T00:43:22.095Z,48.47
2019-03-23T00:45:51.591Z,50.40
2019-03-23T00:48:21.092Z,52.97
2019-03-23T00:50:50.626Z,48.77
2019-03-23T00:53:20.033Z,47.53
2019-03-23T00:55:49.505Z,51.73
2019-03-23T00:58:18.901Z,54.77
2019-03-23T01:00:48.834Z,52.50
2019-03-23T01:03:18.346Z,54.07
2019-03-23T01:05:47.808Z,54.63
2019-03-23T01:08:17.309Z,51.30
2019-03-23T01:10:46.766Z,52.20
2019-03-23T01:13:16.138Z,51.73
2019-03-23T01:15:45.542Z,53.00
2019-03-23T01:18:14.905Z,53.87
2019-03-23T01:20:49.591Z,57.10
2019-03-23T01:23:15.453Z,54.03
2019-03-23T01:25:44.948Z,56.23
2019-03-23T01:28:14.322Z,51.90
2019-03-23T01:30:43.795Z,53.87
2019-03-23T01:33:13.210Z,54.70
2019-03-23T01:35:42.688Z,54.80
2019-03-23T01:38:12.095Z,52.97
2019-03-23T01:40:41.666Z,50.50
2019-03-23T01:43:11.442Z,46.80
2019-03-23T01:45:40.826Z,50.80
2019-03-23T01:48:10.345Z,48.80
2019-03-23T01:50:39.750Z,48.77
2019-03-23T01:53:09.152Z,51.40
2019-03-23T01:55:39.762Z,47.30
2019-03-23T01:58:09.161Z,51.57
2019-03-23T02:00:38.658Z,48.53
2019-03-23T02:03:08.146Z,46.83
2019-03-23T02:05:37.503Z,48.50
2019-03-23T02:08:06.978Z,39.20
2019-03-23T02:10:36.369Z,49.10
2019-03-23T02:13:05.836Z,51.73
2019-03-23T02:15:35.350Z,50.83
2019-03-23T02:18:04.917Z,51.57
2019-03-23T02:20:34.318Z,53.37
2019-03-23T02:23:03.757Z,52.70
2019-03-23T02:25:33.224Z,56.50
2019-03-23T02:28:02.705Z,55.70
2019-03-23T02:30:32.138Z,55.67
2019-03-23T02:33:01.564Z,56.17
2019-03-23T02:35:30.943Z,56.90
2019-03-23T02:38:00.404Z,52.37
2019-03-23T02:40:29.785Z,49.53
2019-03-23T02:42:59.199Z,56.97
2019-03-23T02:45:30.291Z,53.17
2019-03-23T02:47:59.731Z,54.03
2019-03-23T02:50:29.155Z,52.20
2019-03-23T02:52:58.531Z,54.70
2019-03-23T02:55:27.998Z,54.57
2019-03-23T02:57:57.359Z,55.93
2019-03-23T03:00:27.721Z,55.83
2019-03-23T03:02:57.238Z,53.53
2019-03-23T03:05:26.694Z,53.20
2019-03-23T03:07:56.094Z,54.20
2019-03-23T03:10:41.520Z,55.67
2019-03-23T03:13:11.099Z,56.10
2019-03-23T03:15:40.729Z,50.97
2019-03-23T03:18:10.322Z,56.47
2019-03-23T03:20:39.835Z,55.10
2019-03-23T03:23:09.517Z,55.73
2019-03-23T03:25:38.881Z,56.30
2019-03-23T03:28:08.361Z,56.53
2019-03-23T03:30:37.835Z,53.23
2019-03-23T03:33:07.398Z,57.33
2019-03-23T03:35:36.799Z,53.47
2019-03-23T03:38:06.211Z,56.53
2019-03-23T03:40:35.646Z,57.93
2019-03-23T03:43:05.285Z,55.20
2019-03-23T03:45:34.643Z,53.70
2019-03-23T03:48:04.339Z,49.67
2019-03-23T03:50:33.708Z,51.23
2019-03-23T03:53:03.175Z,52.80
2019-03-23T03:55:32.639Z,52.90
2019-03-23T03:58:02.077Z,53.10
2019-03-23T04:00:31.750Z,51.90
2019-03-23T04:03:01.217Z,51.67
2019-03-23T04:05:30.603Z,52.93
2019-03-23T04:08:10.541Z,48.13
2019-03-23T04:10:31.275Z,48.10
2019-03-23T04:13:00.764Z,50.00
2019-03-23T04:15:30.232Z,50.50
2019-03-23T04:17:59.602Z,50.17
2019-03-23T04:20:28.987Z,47.13
2019-03-23T04:22:58.382Z,46.27
2019-03-23T04:25:27.784Z,46.00
2019-03-23T04:27:57.190Z,48.23
2019-03-23T04:30:26.660Z,47.50
2019-03-23T04:32:56.111Z,44.53
2019-03-23T04:35:25.549Z,49.00
2019-03-23T04:37:54.936Z,46.07
2019-03-23T04:40:24.317Z,47.20
2019-03-23T04:42:53.730Z,40.27
2019-03-23T04:45:23.217Z,47.50
2019-03-23T04:47:52.786Z,44.63
2019-03-23T04:50:22.181Z,46.20
2019-03-23T04:52:51.591Z,40.80
2019-03-23T04:55:21.080Z,47.27
2019-03-23T04:57:50.444Z,46.90
2019-03-23T05:00:20.018Z,45.23
2019-03-23T05:02:49.546Z,42.73
2019-03-23T05:05:19.041Z,44.23
2019-03-23T05:07:48.509Z,42.87
2019-03-23T05:10:17.902Z,39.80
2019-03-23T05:12:47.338Z,43.63
2019-03-23T05:15:16.802Z,43.73
2019-03-23T05:17:46.334Z,41.37
2019-03-23T05:20:26.965Z,40.73
2019-03-23T05:22:56.440Z,39.97
2019-03-23T05:25:27.103Z,41.93
2019-03-23T05:27:56.802Z,41.47
2019-03-23T05:30:26.350Z,40.70
2019-03-23T05:32:55.745Z,37.53
2019-03-23T05:35:25.202Z,38.50
2019-03-23T05:37:54.676Z,38.60
2019-03-23T05:40:24.094Z,37.93
2019-03-23T05:42:53.487Z,42.00
2019-03-23T05:45:22.918Z,38.77
2019-03-23T05:47:52.323Z,40.60
2019-03-23T05:50:21.788Z,38.43
2019-03-23T05:52:51.261Z,42.93
2019-03-23T05:55:20.721Z,41.60
2019-03-23T05:57:50.198Z,38.83
2019-03-23T06:00:21.197Z,39.90
2019-03-23T06:02:50.593Z,36.63
2019-03-23T06:05:20.050Z,39.13
2019-03-23T06:07:49.539Z,40.13
2019-03-23T06:10:19.039Z,40.83
2019-03-23T06:12:48.502Z,42.83
2019-03-23T06:15:18.045Z,41.07
2019-03-23T06:17:47.459Z,40.63
2019-03-23T06:20:16.982Z,41.70
2019-03-23T06:22:46.379Z,43.63
2019-03-23T06:25:15.903Z,41.50
2019-03-23T06:27:45.309Z,43.83
2019-03-23T06:30:14.862Z,41.43
2019-03-23T06:32:44.469Z,36.90
2019-03-23T06:35:14.017Z,40.77
2019-03-23T06:37:43.405Z,42.47
2019-03-23T06:40:13.439Z,36.73
2019-03-23T06:42:42.927Z,42.13
2019-03-23T06:45:12.636Z,41.90
2019-03-23T06:47:42.115Z,40.67
2019-03-23T06:50:11.779Z,41.67
2019-03-23T06:52:41.261Z,42.53
2019-03-23T06:55:10.810Z,43.67
2019-03-23T06:57:40.235Z,30.83
2019-03-23T07:00:10.720Z,42.63
2019-03-23T07:02:40.271Z,43.40
2019-03-23T07:05:10.265Z,44.83
2019-03-23T07:07:39.825Z,42.97
2019-03-23T07:10:10.020Z,43.10
2019-03-23T07:12:39.586Z,29.50
2019-03-23T07:15:19.357Z,38.83
2019-03-23T07:17:41.397Z,39.73
2019-03-23T07:20:11.755Z,35.63
2019-03-23T07:22:41.341Z,41.00
2019-03-23T07:25:11.225Z,37.07
2019-03-23T07:27:40.683Z,40.67
2019-03-23T07:30:12.062Z,42.40
2019-03-23T07:32:41.627Z,36.97
2019-03-23T07:35:11.349Z,39.37
2019-03-23T07:37:40.814Z,36.77
2019-03-23T07:40:11.101Z,39.47
2019-03-23T07:42:40.638Z,41.67
2019-03-23T07:45:10.401Z,38.83
2019-03-23T07:47:39.831Z,36.87
2019-03-23T07:50:09.598Z,37.47
2019-03-23T07:52:39.127Z,37.20
2019-03-23T07:55:11.699Z,39.43
2019-03-23T07:57:41.309Z,39.73
2019-03-23T08:00:12.714Z,34.10
2019-03-23T08:02:42.153Z,34.77
2019-03-23T08:05:11.717Z,36.30
2019-03-23T08:07:41.283Z,34.03
2019-03-23T08:10:10.874Z,34.73
2019-03-23T08:12:40.274Z,37.13
2019-03-23T08:15:10.159Z,38.80
2019-03-23T08:17:39.591Z,37.27
2019-03-23T08:20:09.131Z,34.40
2019-03-23T08:22:38.681Z,34.30
2019-03-23T08:25:08.235Z,37.93
2019-03-23T08:27:37.714Z,32.67
2019-03-23T08:30:07.547Z,28.37
2019-03-23T08:32:36.928Z,35.07
2019-03-23T08:35:06.627Z,30.43
2019-03-23T08:37:36.025Z,36.80
2019-03-23T08:40:06.186Z,34.17
2019-03-23T08:42:35.718Z,34.70
2019-03-23T08:45:05.582Z,33.20
2019-03-23T08:47:35.109Z,30.17
2019-03-23T08:50:04.757Z,33.93
2019-03-23T08:52:34.219Z,34.00
2019-03-23T08:55:03.901Z,33.13
2019-03-23T08:57:33.266Z,29.23
2019-03-23T09:00:02.930Z,30.53
2019-03-23T09:02:32.310Z,32.60
2019-03-23T09:05:01.833Z,31.20
2019-03-23T09:07:31.206Z,30.17
2019-03-23T09:10:00.597Z,30.77
2019-03-23T09:12:29.993Z,30.07
2019-03-23T09:14:59.382Z,33.13
2019-03-23T09:17:28.785Z,25.80
2019-03-23T09:19:58.169Z,29.87
2019-03-23T09:22:27.574Z,30.97
2019-03-23T09:24:57.278Z,28.50
2019-03-23T09:27:26.834Z,27.43
2019-03-23T09:29:56.345Z,25.70
2019-03-23T09:32:25.787Z,26.13
2019-03-23T09:34:55.175Z,27.33
2019-03-23T09:37:24.632Z,24.33
2019-03-23T09:39:54.089Z,29.77
2019-03-23T09:42:23.482Z,26.47
2019-03-23T09:44:52.896Z,24.63
2019-03-23T09:47:22.253Z,24.83
2019-03-23T09:49:51.713Z,23.27
2019-03-23T09:52:21.156Z,26.47
2019-03-23T09:54:50.666Z,23.17
2019-03-23T09:57:25.519Z,21.80
2019-03-23T09:59:54.906Z,19.27
2019-03-23T10:02:24.398Z,22.40
2019-03-23T10:04:53.807Z,18.50
2019-03-23T10:07:23.272Z,15.57
2019-03-23T10:09:52.742Z,15.00
2019-03-23T10:12:22.165Z,17.63
2019-03-23T10:14:51.566Z,20.07
2019-03-23T10:17:21.434Z,17.40
2019-03-23T10:19:50.888Z,14.73
2019-03-23T10:22:20.300Z,12.83
2019-03-23T10:24:49.696Z,15.57
2019-03-23T10:27:19.085Z,15.53
2019-03-23T10:29:48.497Z,17.77
2019-03-23T10:32:18.046Z,14.50
2019-03-23T10:34:47.409Z,14.43
2019-03-23T10:37:16.869Z,11.77
2019-03-23T10:39:46.251Z,13.63
2019-03-23T10:42:16.359Z,13.07
2019-03-23T10:44:45.926Z,9.70
2019-03-23T10:47:15.316Z,12.83
2019-03-23T10:49:44.752Z,13.07
2019-03-23T10:52:14.301Z,14.03
2019-03-23T10:54:43.794Z,13.83
2019-03-23T10:57:13.186Z,10.93
2019-03-23T10:59:42.567Z,16.27
2019-03-23T11:02:12.125Z,15.13
2019-03-23T11:04:41.546Z,10.10
2019-03-23T11:07:10.999Z,10.90
2019-03-23T11:09:40.406Z,9.23
2019-03-23T11:12:09.849Z,12.57
2019-03-23T11:14:39.314Z,12.47
2019-03-23T11:17:08.754Z,13.30
2019-03-23T11:19:38.162Z,8.47
2019-03-23T11:22:07.670Z,12.87
2019-03-23T11:24:37.149Z,9.87
2019-03-23T11:27:06.706Z,12.97
2019-03-23T11:29:36.126Z,14.20
2019-03-23T11:32:05.688Z,13.23
2019-03-23T11:34:35.191Z,14.77
2019-03-23T11:37:04.949Z,9.50
2019-03-23T11:39:34.455Z,10.67
2019-03-23T11:42:03.944Z,10.63
2019-03-23T11:44:33.318Z,14.37
2019-03-23T11:47:02.830Z,9.27
2019-03-23T11:49:32.210Z,13.53
2019-03-23T11:52:01.688Z,13.43
2019-03-23T11:54:31.144Z,16.50
2019-03-23T11:57:00.590Z,8.63
2019-03-23T11:59:29.991Z,18.27
2019-03-23T12:01:59.359Z,12.90
2019-03-23T12:04:28.745Z,12.60
2019-03-23T12:06:58.233Z,10.97
2019-03-23T12:09:27.709Z,12.37
2019-03-23T12:11:57.114Z,16.03
2019-03-23T12:14:26.594Z,16.03
2019-03-23T12:16:56.030Z,14.80
2019-03-23T12:19:25.454Z,7.53
2019-03-23T12:21:54.949Z,13.97
2019-03-23T12:24:24.365Z,11.97
2019-03-23T12:26:53.885Z,5.67
2019-03-23T12:29:23.286Z,11.17
2019-03-23T12:31:52.749Z,11.40
2019-03-23T12:34:22.164Z,11.40
2019-03-23T12:36:51.521Z,11.00
2019-03-23T12:39:20.925Z,10.70
2019-03-23T12:41:50.315Z,11.17
2019-03-23T12:44:19.781Z,13.20
2019-03-23T12:46:49.187Z,10.77
2019-03-23T12:49:18.617Z,9.30
2019-03-23T12:51:48.018Z,10.00
2019-03-23T12:54:17.389Z,8.60
2019-03-23T12:56:46.857Z,7.57
2019-03-23T12:59:16.317Z,12.60
2019-03-23T13:01:45.717Z,7.57
2019-03-23T13:04:15.163Z,12.67
2019-03-23T13:06:44.737Z,7.00
2019-03-23T13:09:14.151Z,6.43
2019-03-23T13:11:43.723Z,5.47
2019-03-23T13:14:13.114Z,10.73
2019-03-23T13:16:42.507Z,7.80
2019-03-23T13:19:11.920Z,10.40
2019-03-23T13:21:41.295Z,11.47
2019-03-23T13:24:10.733Z,13.20
2019-03-23T13:26:40.129Z,11.47
2019-03-23T13:29:09.534Z,14.77
2019-03-23T13:31:38.934Z,11.33
2019-03-23T13:34:08.346Z,12.10
2019-03-23T13:36:37.705Z,9.83
2019-03-23T13:39:07.750Z,6.80
2019-03-23T13:41:46.064Z,13.53
2019-03-23T13:44:15.830Z,12.30
2019-03-23T13:46:45.258Z,6.73
2019-03-23T13:49:14.653Z,9.80
2019-03-23T13:51:44.107Z,9.80
2019-03-23T13:54:13.529Z,11.17
2019-03-23T13:56:43.045Z,8.17
2019-03-23T13:59:12.455Z,13.17
2019-03-23T14:01:41.897Z,8.50
2019-03-23T14:04:11.264Z,9.50
2019-03-23T14:06:40.681Z,7.20
2019-03-23T14:09:10.159Z,9.87
2019-03-23T14:11:39.627Z,9.87
2019-03-23T14:14:09.111Z,11.30
2019-03-23T14:16:38.538Z,11.67
2019-03-23T14:19:07.934Z,11.30
2019-03-23T14:21:37.314Z,11.53
2019-03-23T14:24:06.806Z,9.37
2019-03-23T14:26:36.192Z,7.03
2019-03-23T14:29:05.734Z,9.03
2019-03-23T14:31:35.139Z,9.87
2019-03-23T14:34:04.670Z,7.87
2019-03-23T14:36:34.129Z,12.90
2019-03-23T14:39:05.359Z,7.97
2019-03-23T14:41:34.762Z,8.93
2019-03-23T14:44:04.226Z,9.73
2019-03-23T14:46:33.674Z,8.27
2019-03-23T14:49:03.113Z,7.87
2019-03-23T14:51:32.559Z,8.70
2019-03-23T14:54:02.054Z,9.83
2019-03-23T14:56:32.041Z,9.40
2019-03-23T14:59:01.944Z,10.00
2019-03-23T15:01:31.353Z,12.50
2019-03-23T15:04:00.719Z,11.13
2019-03-23T15:06:30.169Z,8.87
2019-03-23T15:08:59.714Z,6.93
2019-03-23T15:11:29.188Z,15.00
2019-03-23T15:13:58.656Z,8.97
2019-03-23T15:16:28.137Z,9.47
2019-03-23T15:18:57.594Z,8.90
2019-03-23T15:21:27.064Z,10.33
2019-03-23T15:23:56.615Z,11.27
2019-03-23T15:26:25.987Z,12.27
2019-03-23T15:28:55.405Z,9.90
2019-03-23T15:31:24.832Z,8.63
2019-03-23T15:33:54.218Z,12.47
2019-03-23T15:36:23.622Z,12.10
2019-03-23T15:38:53.162Z,13.10
2019-03-23T15:41:24.705Z,14.90
2019-03-23T15:43:53.747Z,13.47
2019-03-23T15:46:23.218Z,13.47
2019-03-23T15:48:52.584Z,8.77
2019-03-23T15:51:22.149Z,12.50
2019-03-23T15:53:51.535Z,10.03
2019-03-23T15:56:21.032Z,10.10
2019-03-23T15:58:50.414Z,11.23
2019-03-23T16:01:19.813Z,18.40
2019-03-23T16:03:49.266Z,9.43
2019-03-23T16:06:18.721Z,13.27
2019-03-23T16:08:48.201Z,10.33
2019-03-23T16:11:17.594Z,14.63
2019-03-23T16:13:46.958Z,10.27
2019-03-23T16:16:16.341Z,15.57
2019-03-23T16:18:45.797Z,14.87
2019-03-23T16:21:15.189Z,10.73
2019-03-23T16:23:44.626Z,14.47
2019-03-23T16:26:14.081Z,13.20
2019-03-23T16:28:43.517Z,13.10
2019-03-23T16:31:12.942Z,10.27
2019-03-23T16:33:42.322Z,11.77
2019-03-23T16:36:11.701Z,10.30
2019-03-23T16:38:41.161Z,11.07
2019-03-23T16:41:10.526Z,11.73
2019-03-23T16:43:39.898Z,9.73
2019-03-23T16:46:09.306Z,11.77
2019-03-23T16:48:38.709Z,9.37
2019-03-23T16:51:08.108Z,12.90
2019-03-23T16:53:37.504Z,14.80
2019-03-23T16:56:06.988Z,10.50
2019-03-23T16:58:36.461Z,13.23
2019-03-23T17:01:05.973Z,13.03
2019-03-23T17:03:35.385Z,9.87
2019-03-23T17:06:05.006Z,10.00
2019-03-23T17:08:34.408Z,9.33
2019-03-23T17:11:03.935Z,12.53
2019-03-23T17:13:33.370Z,11.40
2019-03-23T17:16:02.891Z,9.73
2019-03-23T17:18:32.370Z,9.53
2019-03-23T17:21:01.864Z,9.50
2019-03-23T17:23:31.238Z,10.73
2019-03-23T17:26:00.640Z,10.17
2019-03-23T17:28:30.482Z,8.00
2019-03-23T17:31:03.004Z,9.70
2019-03-23T17:33:32.533Z,13.10
2019-03-23T17:36:02.145Z,9.10
2019-03-23T17:38:31.603Z,7.10
2019-03-23T17:41:01.143Z,8.10
2019-03-23T17:43:30.797Z,12.53
2019-03-23T17:46:00.265Z,10.57
2019-03-23T17:48:29.804Z,15.87
2019-03-23T17:50:59.387Z,13.87
2019-03-23T17:53:28.866Z,16.13
2019-03-23T17:55:58.485Z,11.30
2019-03-23T17:58:27.886Z,12.30
2019-03-23T18:00:57.451Z,15.33
2019-03-23T18:03:27.017Z,12.80
2019-03-23T18:05:56.676Z,14.37
2019-03-23T18:08:27.691Z,13.17
2019-03-23T18:10:57.255Z,20.63
2019-03-23T18:13:28.411Z,13.77
2019-03-23T18:15:57.903Z,9.47
2019-03-23T18:18:27.405Z,17.30
2019-03-23T18:20:56.906Z,11.80
2019-03-23T18:23:26.533Z,15.03
2019-03-23T18:25:56.052Z,18.70
2019-03-23T18:28:25.572Z,13.33
2019-03-23T18:30:54.975Z,15.27
2019-03-23T18:33:24.537Z,16.57
2019-03-23T18:35:54.085Z,20.93
2019-03-23T18:38:23.569Z,14.30
2019-03-23T18:40:53.140Z,17.33
2019-03-23T18:43:27.473Z,14.20
2019-03-23T18:45:54.427Z,16.57
2019-03-23T18:48:24.011Z,13.37
2019-03-23T18:50:53.644Z,13.27
2019-03-23T18:53:24.156Z,13.43
2019-03-23T18:55:53.712Z,17.33
2019-03-23T18:58:23.089Z,16.83
2019-03-23T19:00:52.673Z,13.17
2019-03-23T19:03:22.148Z,13.47
2019-03-23T19:05:51.638Z,18.90
2019-03-23T19:08:21.210Z,22.73
2019-03-23T19:10:51.614Z,14.77
2019-03-23T19:13:21.086Z,16.07
2019-03-23T19:15:50.537Z,16.70
2019-03-23T19:18:20.011Z,17.30
2019-03-23T19:20:49.598Z,19.23
2019-03-23T19:23:19.068Z,16.90
2019-03-23T19:25:48.466Z,16.57
2019-03-23T19:28:18.061Z,17.80
2019-03-23T19:30:47.569Z,13.87
2019-03-23T19:33:17.136Z,17.57
2019-03-23T19:35:46.628Z,15.97
2019-03-23T19:38:18.088Z,16.07
2019-03-23T19:40:47.291Z,19.93
2019-03-23T19:43:16.736Z,16.27
2019-03-23T19:45:46.194Z,18.70
2019-03-23T19:48:15.645Z,17.37
2019-03-23T19:50:45.218Z,18.33
2019-03-23T19:53:14.657Z,15.53
2019-03-23T19:55:44.224Z,17.43
2019-03-23T19:58:13.700Z,17.73
2019-03-23T20:00:43.219Z,20.37
2019-03-23T20:03:12.804Z,13.37
2019-03-23T20:05:42.439Z,18.37
2019-03-23T20:08:11.951Z,16.00
2019-03-23T20:10:41.488Z,18.90
2019-03-23T20:13:10.928Z,16.23
2019-03-23T20:15:40.571Z,16.83
2019-03-23T20:18:10.026Z,19.93
2019-03-23T20:20:39.419Z,18.70
2019-03-23T20:23:08.955Z,20.23
2019-03-23T20:25:39.814Z,16.67
2019-03-23T20:28:09.525Z,15.23
2019-03-23T20:30:38.982Z,20.27
2019-03-23T20:33:15.308Z,20.53
2019-03-23T20:35:39.553Z,23.80
2019-03-23T20:38:09.027Z,17.83
2019-03-23T20:40:38.445Z,20.43
2019-03-23T20:43:07.934Z,17.83
2019-03-23T20:45:37.338Z,14.13
2019-03-23T20:48:06.941Z,20.43
2019-03-23T20:50:37.226Z,17.67
2019-03-23T20:53:06.780Z,15.30
2019-03-23T20:55:36.320Z,18.60
2019-03-23T20:58:05.856Z,19.53
2019-03-23T21:00:35.321Z,16.37
2019-03-23T21:03:04.949Z,19.33
2019-03-23T21:05:35.215Z,18.17
2019-03-23T21:08:04.927Z,17.30
2019-03-23T21:10:34.464Z,16.13
2019-03-23T21:13:04.122Z,22.47
2019-03-23T21:15:33.501Z,20.73
2019-03-23T21:18:03.080Z,19.67
2019-03-23T21:20:32.534Z,17.93
2019-03-23T21:23:02.241Z,15.50
2019-03-23T21:25:31.663Z,18.00
2019-03-23T21:28:01.158Z,14.93
2019-03-23T21:30:30.730Z,22.13
2019-03-23T21:33:00.233Z,15.60
2019-03-23T21:35:29.711Z,21.00
2019-03-23T21:37:59.284Z,17.80
2019-03-23T21:40:28.695Z,19.13
2019-03-23T21:42:58.078Z,20.33
2019-03-23T21:45:27.637Z,25.83
2019-03-23T21:47:57.026Z,24.43
2019-03-23T21:50:26.416Z,21.37
2019-03-23T21:52:55.925Z,19.70
2019-03-23T21:55:25.366Z,20.37
2019-03-23T21:57:54.862Z,19.43
2019-03-23T22:00:34.633Z,20.23
2019-03-23T22:03:04.527Z,14.93
2019-03-23T22:05:33.985Z,23.13
2019-03-23T22:08:03.478Z,19.23
2019-03-23T22:10:32.881Z,17.27
2019-03-23T22:13:02.365Z,22.03
2019-03-23T22:15:33.355Z,23.03
2019-03-23T22:18:03.013Z,21.80
2019-03-23T22:20:32.630Z,17.70
2019-03-23T22:23:02.552Z,22.27
2019-03-23T22:25:32.090Z,16.63
2019-03-23T22:28:01.667Z,17.63
2019-03-23T22:30:31.142Z,18.50
2019-03-23T22:33:01.061Z,20.07
2019-03-23T22:35:30.590Z,21.20
2019-03-23T22:37:59.998Z,20.13
2019-03-23T22:40:29.507Z,19.50
2019-03-23T22:42:58.895Z,20.23
2019-03-23T22:45:28.365Z,21.43
2019-03-23T22:47:57.775Z,14.87
2019-03-23T22:50:27.265Z,22.73
2019-03-23T22:52:56.780Z,19.57
2019-03-23T22:55:26.242Z,15.47
2019-03-23T22:57:56.418Z,19.17
2019-03-23T23:00:41.375Z,19.10
2019-03-23T23:03:11.249Z,18.77
2019-03-23T23:05:40.891Z,19.83
2019-03-23T23:08:10.308Z,15.13
2019-03-23T23:10:39.801Z,17.80
2019-03-23T23:13:09.205Z,15.97
2019-03-23T23:15:38.665Z,20.90
2019-03-23T23:18:08.201Z,20.03
2019-03-23T23:20:37.691Z,14.97
2019-03-23T23:23:07.170Z,22.17
2019-03-23T23:25:36.655Z,22.40
2019-03-23T23:28:06.174Z,22.53
2019-03-23T23:30:35.690Z,22.80
2019-03-23T23:33:05.347Z,18.33
2019-03-23T23:35:34.798Z,20.73
2019-03-23T23:38:04.390Z,19.43
2019-03-23T23:40:34.258Z,15.37
2019-03-23T23:43:03.941Z,19.73
2019-03-23T23:45:33.390Z,18.27
2019-03-23T23:48:02.860Z,16.27
2019-03-23T23:50:32.294Z,16.60
2019-03-23T23:53:01.724Z,16.50
2019-03-23T23:55:31.158Z,21.07
2019-03-23T23:58:00.612Z,21.93
